Time;durP1;ratioP1;P1;durP2;ratioP2;P2;SDS_P1;SDS_P2;PMS_P1;PMS_P2;Temp;Humidity;BMP_temperature;BMP_pressure;BME280_temperature;BME280_humidity;BME280_pressure;Samples;Min_cycle;Max_cycle;Signal;HPM_P1;HPM_P2
2023/07/24 00:00:44;;;;;;;7.80;5.90;;;;;;;-143.84;92.29;45090.97;4973432;28;20504;-50
2023/07/24 00:03:11;;;;;;;6.30;5.80;;;;;;;-143.84;92.18;45068.13;4973616;28;20446;-51
2023/07/24 00:05:40;;;;;;;9.40;5.30;;;;;;;-143.84;92.27;45081.44;4973466;28;20446;-51
2023/07/24 00:08:07;;;;;;;5.93;5.00;;;;;;;-143.84;92.57;45052.88;4973588;28;20512;-50
2023/07/24 00:10:34;;;;;;;7.10;5.90;;;;;;;-143.84;92.60;45068.13;4973614;28;21102;-51
2023/07/24 00:13:03;;;;;;;5.30;4.80;;;;;;;-143.84;92.92;45090.97;4973588;28;20796;-50
2023/07/24 00:15:30;;;;;;;6.50;5.90;;;;;;;-143.84;92.90;45056.69;4973335;28;20474;-51
2023/07/24 00:17:57;;;;;;;5.53;5.00;;;;;;;-143.84;92.77;45098.56;4973013;28;21006;-54
2023/07/24 00:20:26;;;;;;;6.10;5.50;;;;;;;-143.84;92.87;45056.69;4972837;28;20445;-55
2023/07/24 00:22:54;;;;;;;6.00;5.50;;;;;;;-143.84;93.01;45090.97;4973002;28;20450;-55
2023/07/24 00:25:21;;;;;;;14.73;6.03;;;;;;;-143.84;93.34;45089.06;4971665;28;20497;-55
2023/07/24 00:27:48;;;;;;;12.10;5.80;;;;;;;-143.84;93.23;45100.47;4972823;28;20504;-55
2023/07/24 00:30:15;;;;;;;8.13;5.37;;;;;;;-143.84;93.41;45094.78;4972791;28;21111;-55
2023/07/24 00:32:42;;;;;;;6.23;5.63;;;;;;;-143.84;93.57;45068.13;4972891;28;20866;-55
2023/07/24 00:35:10;;;;;;;7.07;5.40;;;;;;;-143.84;93.60;45068.13;4972656;28;20442;-55
2023/07/24 00:37:37;;;;;;;8.23;6.03;;;;;;;-143.84;93.60;45054.78;4973079;28;20900;-55
2023/07/24 00:40:07;;;;;;;8.43;5.80;;;;;;;-143.84;93.24;45077.63;4972733;28;20492;-55
2023/07/24 00:42:34;;;;;;;10.83;5.87;;;;;;;-143.84;93.42;45089.06;4973003;28;20822;-55
2023/07/24 00:45:01;;;;;;;8.90;6.00;;;;;;;-143.84;93.40;45092.88;4973123;28;20528;-55
2023/07/24 00:47:29;;;;;;;6.03;5.33;;;;;;;-143.84;93.37;45073.81;4971894;28;20450;-55
2023/07/24 00:49:56;;;;;;;9.53;5.80;;;;;;;-143.84;93.28;45075.72;4972620;28;21304;-55
2023/07/24 00:52:24;;;;;;;6.17;4.83;;;;;;;-143.84;93.37;45090.97;4972986;28;21215;-55
2023/07/24 00:54:51;;;;;;;5.60;5.10;;;;;;;-143.84;92.82;45083.34;4972451;28;20489;-55
2023/07/24 00:57:20;;;;;;;5.23;4.83;;;;;;;-143.84;92.76;45092.88;4972574;28;20442;-55
2023/07/24 00:59:47;;;;;;;5.93;5.43;;;;;;;-143.84;92.54;45104.28;4972326;28;20508;-55
2023/07/24 01:02:14;;;;;;;6.40;5.80;;;;;;;-143.84;92.75;45073.81;4971028;28;20446;-55
2023/07/24 01:04:41;;;;;;;13.30;6.00;;;;;;;-143.84;92.84;45071.91;4970947;28;20453;-55
2023/07/24 01:07:08;;;;;;;7.67;5.33;;;;;;;-143.84;93.10;45085.25;4971166;28;21116;-55
2023/07/24 01:09:35;;;;;;;8.73;5.60;;;;;;;-143.84;92.85;45073.81;4970781;28;20986;-55
2023/07/24 01:12:11;;;;;;;6.20;5.60;;;;;;;-143.84;92.88;45073.81;4971169;28;20512;-55
2023/07/24 01:14:47;;;;;;;9.93;5.73;;;;;;;-143.84;93.17;45085.25;4971016;28;21321;-55
2023/07/24 01:17:17;;;;;;;10.20;5.90;;;;;;;-143.84;93.74;45077.63;4972019;28;21022;-55
2023/07/24 01:19:48;;;;;;;8.93;7.30;;;;;;;-143.84;94.29;45089.06;4971849;28;20450;-55
2023/07/24 01:22:25;;;;;;;9.73;6.40;;;;;;;-143.84;95.01;45079.53;4971961;28;20525;-55
2023/07/24 01:25:06;;;;;;;9.20;6.00;;;;;;;-143.84;95.39;45071.91;4971930;28;20448;-55
2023/07/24 01:27:34;;;;;;;8.50;6.80;;;;;;;-143.84;95.90;45083.34;4971969;28;20452;-55
2023/07/24 01:30:01;;;;;;;12.10;6.13;;;;;;;-143.84;95.79;45081.44;4971875;28;20554;-55
2023/07/24 01:32:29;;;;;;;7.60;6.73;;;;;;;-143.84;96.00;45054.78;4971868;28;20448;-55
2023/07/24 01:34:56;;;;;;;7.80;6.30;;;;;;;-143.84;96.20;45102.38;4971664;28;20453;-55
2023/07/24 01:37:26;;;;;;;7.77;5.83;;;;;;;-143.84;96.50;45079.53;4971767;28;20529;-55
2023/07/24 01:39:55;;;;;;;7.00;6.30;;;;;;;-143.84;96.55;45054.78;4971581;28;20492;-55
2023/07/24 01:42:22;;;;;;;13.00;5.90;;;;;;;-143.84;96.31;45037.66;4971687;28;20457;-55
2023/07/24 01:44:54;;;;;;;9.47;6.00;;;;;;;-143.84;95.99;45070.00;4971763;28;20825;-55
2023/07/24 01:47:21;;;;;;;9.17;5.97;;;;;;;-143.84;96.10;45068.13;4971734;28;20453;-55
2023/07/24 01:49:48;;;;;;;8.10;6.17;;;;;;;-143.84;96.19;45066.22;4971634;28;20486;-55
2023/07/24 01:52:16;;;;;;;14.33;6.63;;;;;;;-143.84;96.48;45052.88;4971586;28;20434;-55
2023/07/24 01:54:43;;;;;;;10.20;6.20;;;;;;;-143.84;96.58;45070.00;4970983;28;20490;-55
2023/07/24 01:57:10;;;;;;;6.63;5.93;;;;;;;-143.84;96.55;45073.81;4971277;28;20931;-55
2023/07/24 01:59:37;;;;;;;12.00;5.90;;;;;;;-143.84;96.75;45098.56;4970398;28;20498;-55
2023/07/24 02:02:06;;;;;;;8.30;6.00;;;;;;;-143.84;96.53;45085.25;4971178;28;20453;-55
2023/07/24 02:04:33;;;;;;;6.87;5.83;;;;;;;-143.84;97.01;45066.22;4971376;28;20927;-55
2023/07/24 02:07:00;;;;;;;6.80;6.20;;;;;;;-143.84;96.92;45068.13;4971494;28;20465;-55
2023/07/24 02:09:27;;;;;;;6.60;6.00;;;;;;;-143.84;96.78;45068.13;4971034;28;20509;-55
2023/07/24 02:11:54;;;;;;;7.00;6.30;;;;;;;-143.84;96.63;45068.13;4971068;28;20987;-55
2023/07/24 02:14:22;;;;;;;15.00;6.30;;;;;;;-143.84;96.54;45071.91;4970985;28;20450;-55
2023/07/24 02:16:49;;;;;;;8.80;6.27;;;;;;;-143.84;96.24;45077.63;4970793;28;20509;-55
2023/07/24 02:19:17;;;;;;;7.37;6.50;;;;;;;-143.84;96.19;45087.16;4971112;28;20500;-55
2023/07/24 02:21:44;;;;;;;10.37;6.83;;;;;;;-143.84;96.63;45081.44;4970996;28;20454;-55
2023/07/24 02:24:11;;;;;;;7.57;6.53;;;;;;;-143.84;97.35;45087.16;4970812;28;20446;-55
2023/07/24 02:26:38;;;;;;;6.53;5.90;;;;;;;-143.84;97.84;45060.50;4970816;28;20660;-55
2023/07/24 02:29:06;;;;;;;6.43;5.83;;;;;;;-143.84;98.05;45068.13;4970631;28;20497;-55
2023/07/24 02:31:33;;;;;;;8.47;5.83;;;;;;;-143.84;98.48;45060.50;4970705;28;20513;-55
2023/07/24 02:34:00;;;;;;;6.00;5.50;;;;;;;-143.84;98.80;45050.97;4970969;28;20508;-55
2023/07/24 02:36:28;;;;;;;12.17;6.37;;;;;;;-143.84;99.11;45047.16;4970780;28;20837;-55
2023/07/24 02:38:55;;;;;;;7.83;6.13;;;;;;;-143.84;99.26;45056.69;4970798;28;20449;-55
2023/07/24 02:41:22;;;;;;;8.13;6.77;;;;;;;-143.84;99.34;45066.22;4970594;28;20488;-55
2023/07/24 02:43:49;;;;;;;11.57;5.90;;;;;;;-143.84;99.28;45018.59;4970623;28;20974;-55
2023/07/24 02:46:16;;;;;;;8.63;6.23;;;;;;;-143.84;99.33;45054.78;4970543;28;20937;-55
2023/07/24 02:48:44;;;;;;;9.70;6.80;;;;;;;-143.84;99.21;45070.00;4970504;28;20532;-55
2023/07/24 02:51:11;;;;;;;9.63;6.57;;;;;;;-143.84;99.03;45079.53;4970348;28;20536;-55
2023/07/24 02:53:39;;;;;;;7.43;6.60;;;;;;;-143.84;99.08;45043.34;4970279;28;20477;-55
2023/07/24 02:56:06;;;;;;;13.17;7.70;;;;;;;-143.84;99.17;45052.88;4970378;28;20497;-55
2023/07/24 02:58:34;;;;;;;10.70;7.10;;;;;;;-143.84;98.83;45066.22;4970293;28;20473;-55
2023/07/24 03:01:06;;;;;;;12.47;6.73;;;;;;;-143.84;98.84;45041.44;4970108;28;20442;-55
2023/07/24 03:03:33;;;;;;;7.27;6.57;;;;;;;-143.84;98.88;45089.06;4970266;28;20948;-55
2023/07/24 03:06:00;;;;;;;7.73;7.13;;;;;;;-143.84;99.04;45062.41;4970127;28;20453;-55
2023/07/24 03:08:27;;;;;;;8.13;7.53;;;;;;;-143.84;98.87;45033.84;4970177;28;20446;-55
2023/07/24 03:10:56;;;;;;;7.70;6.90;;;;;;;-143.84;99.06;45050.97;4969736;28;20638;-55
2023/07/24 03:13:23;;;;;;;8.70;6.43;;;;;;;-143.84;99.06;45049.06;4970359;28;20454;-55
2023/07/24 03:15:54;;;;;;;8.27;7.57;;;;;;;-143.84;99.31;45033.84;4970182;28;20437;-55
2023/07/24 03:18:21;;;;;;;14.67;7.10;;;;;;;-143.84;99.33;45058.59;4970191;28;20452;-55
2023/07/24 03:20:49;;;;;;;13.87;6.70;;;;;;;-143.84;99.23;45039.53;4970173;28;20446;-55
2023/07/24 03:23:16;;;;;;;7.80;7.20;;;;;;;-143.84;99.10;45035.75;4970110;28;20844;-55
2023/07/24 03:25:43;;;;;;;8.13;7.10;;;;;;;-143.84;99.02;45068.13;4970318;28;20508;-55
2023/07/24 03:28:12;;;;;;;11.90;6.77;;;;;;;-143.84;98.78;45077.63;4970241;28;20493;-55
2023/07/24 03:30:39;;;;;;;17.43;7.53;;;;;;;-143.84;98.64;45070.00;4970105;28;20482;-55
2023/07/24 03:33:07;;;;;;;7.00;6.40;;;;;;;-143.84;97.92;45043.34;4969936;28;20442;-55
2023/07/24 03:35:34;;;;;;;6.57;5.97;;;;;;;-143.84;95.22;45039.53;4969988;28;20465;-55
2023/07/24 03:38:01;;;;;;;7.53;5.90;;;;;;;-143.84;91.87;45062.41;4969876;28;20447;-55
2023/07/24 03:40:29;;;;;;;7.33;5.00;;;;;;;-143.84;88.62;45070.00;4970286;28;20591;-54
2023/07/24 03:42:56;;;;;;;16.43;5.40;;;;;;;-143.84;85.97;45056.69;4970075;28;20494;-55
2023/07/24 03:45:24;;;;;;;9.30;5.87;;;;;;;-143.84;83.59;45045.25;4969858;28;20448;-55
2023/07/24 03:47:51;;;;;;;12.00;5.30;;;;;;;-143.84;81.16;45026.22;4969824;28;20448;-55
2023/07/24 03:50:18;;;;;;;5.97;5.47;;;;;;;-143.84;78.05;45052.88;4969742;28;20911;-55
2023/07/24 03:52:45;;;;;;;6.80;5.13;;;;;;;-143.84;75.52;45043.34;4969674;28;20455;-55
2023/07/24 03:55:12;;;;;;;7.07;4.93;;;;;;;-143.84;71.77;45022.41;4969630;28;20477;-55
2023/07/24 03:57:40;;;;;;;8.00;4.73;;;;;;;-143.84;68.83;45022.41;4969740;28;20449;-55
2023/07/24 04:00:08;;;;;;;4.13;3.80;;;;;;;-143.84;67.08;44988.13;4969343;28;20447;-55
2023/07/24 04:02:36;;;;;;;4.47;3.87;;;;;;;-143.84;64.74;45030.03;4969798;28;20508;-55
2023/07/24 04:05:04;;;;;;;5.97;4.10;;;;;;;-143.84;64.80;44999.56;4969759;28;20455;-55
2023/07/24 04:07:31;;;;;;;8.23;4.30;;;;;;;-143.84;64.13;44974.81;4969520;28;20449;-55
2023/07/24 04:09:59;;;;;;;4.40;3.97;;;;;;;-143.84;62.32;45012.88;4969576;28;20449;-55
2023/07/24 04:12:26;;;;;;;6.50;4.50;;;;;;;-143.84;62.71;45012.88;4969436;28;20517;-55
2023/07/24 04:14:53;;;;;;;5.37;3.90;;;;;;;-143.84;61.58;44993.84;4969839;28;20446;-55
2023/07/24 04:17:20;;;;;;;4.10;3.70;;;;;;;-143.84;61.03;44999.56;4969602;28;20445;-55
2023/07/24 04:19:48;;;;;;;5.17;3.47;;;;;;;-143.84;60.88;44997.66;4969630;28;20449;-55
2023/07/24 04:22:15;;;;;;;4.90;3.90;;;;;;;-143.84;60.26;44988.13;4970538;28;20438;-55
2023/07/24 04:24:42;;;;;;;10.40;3.60;;;;;;;-143.84;59.87;44976.72;4973279;28;20437;-55
2023/07/24 04:27:10;;;;;;;5.40;3.67;;;;;;;-143.84;59.81;45003.38;4973019;28;20446;-55
2023/07/24 04:29:37;;;;;;;5.30;3.80;;;;;;;-143.84;58.90;44986.22;4973085;28;20450;-55
2023/07/24 04:32:05;;;;;;;3.97;3.63;;;;;;;-143.84;59.45;45007.19;4970381;28;20488;-55
2023/07/24 04:34:32;;;;;;;9.80;4.27;;;;;;;-143.84;58.02;45001.47;4972656;28;21018;-55
2023/07/24 04:37:01;;;;;;;5.97;3.57;;;;;;;-143.84;57.02;44980.53;4973041;28;20954;-55
2023/07/24 04:39:28;;;;;;;6.03;3.50;;;;;;;-143.84;55.87;44980.53;4972883;28;20446;-55
2023/07/24 04:41:55;;;;;;;4.07;3.77;;;;;;;-143.84;54.44;44965.28;4972662;28;20488;-55
2023/07/24 04:44:22;;;;;;;3.63;3.43;;;;;;;-143.84;54.23;44959.56;4972324;28;20493;-55
2023/07/24 04:46:50;;;;;;;7.53;3.37;;;;;;;-143.84;52.49;44980.53;4972354;28;20453;-55
2023/07/24 04:49:17;;;;;;;7.10;3.83;;;;;;;-143.84;52.86;44969.09;4972321;28;20442;-55
2023/07/24 04:51:44;;;;;;;8.43;3.87;;;;;;;-143.84;50.93;44940.53;4953300;29;20487;-55
2023/07/24 04:54:13;;;;;;;5.63;3.87;;;;;;;-143.84;51.63;44957.66;4953185;28;20486;-55
2023/07/24 04:56:40;;;;;;;4.17;3.80;;;;;;;-143.84;50.48;44936.72;4953110;29;20487;-55
2023/07/24 04:59:07;;;;;;;4.03;3.63;;;;;;;-143.84;49.85;44959.56;4952925;29;20501;-55
2023/07/24 05:01:34;;;;;;;7.73;3.23;;;;;;;-143.84;49.67;44971.00;4953170;29;20451;-55
2023/07/24 05:04:01;;;;;;;4.40;3.70;;;;;;;-143.84;49.06;44965.28;4953093;29;20533;-55
2023/07/24 05:06:28;;;;;;;3.63;3.10;;;;;;;-143.84;49.25;44950.06;4953281;29;20604;-55
2023/07/24 05:08:55;;;;;;;5.87;3.80;;;;;;;-143.84;46.91;44940.53;4956367;28;20508;-55
2023/07/24 05:11:24;;;;;;;3.30;3.10;;;;;;;-143.84;46.95;44908.16;4971902;28;21045;-55
2023/07/24 05:13:51;;;;;;;3.50;3.20;;;;;;;-143.84;46.03;44957.66;4972298;28;20442;-55
2023/07/24 05:16:18;;;;;;;4.80;3.27;;;;;;;-143.84;44.94;44950.06;4972566;28;21193;-55
2023/07/24 05:18:45;;;;;;;4.93;3.30;;;;;;;-143.84;44.59;44910.06;4972259;28;20454;-55
2023/07/24 05:21:12;;;;;;;4.60;3.40;;;;;;;-143.84;45.41;44938.63;4972311;28;20456;-55
2023/07/24 05:23:39;;;;;;;11.00;3.47;;;;;;;-143.84;45.72;44931.00;4972163;28;20442;-55
2023/07/24 05:26:06;;;;;;;9.30;3.53;;;;;;;-143.84;45.29;44885.31;4971733;28;20443;-55
2023/07/24 05:28:35;;;;;;;6.33;3.40;;;;;;;-143.84;44.96;44913.88;4972456;28;20446;-55
2023/07/24 05:31:03;;;;;;;4.33;3.10;;;;;;;-143.84;42.60;44923.41;4971557;28;20482;-55
2023/07/24 05:33:30;;;;;;;7.13;3.30;;;;;;;-143.84;44.04;44906.25;4971440;28;20446;-55
2023/07/24 05:35:59;;;;;;;3.80;3.30;;;;;;;-143.84;44.03;44911.97;4968295;28;20466;-55
2023/07/24 05:38:26;;;;;;;5.30;3.33;;;;;;;-143.84;43.17;44898.66;4971855;28;20453;-55
2023/07/24 05:40:57;;;;;;;3.10;2.90;;;;;;;-143.84;41.71;44904.34;4971348;28;20446;-55
2023/07/24 05:43:24;;;;;;;4.30;3.30;;;;;;;-143.84;40.92;44919.59;4971678;28;20434;-55
2023/07/24 05:45:53;;;;;;;6.47;3.20;;;;;;;-143.84;39.96;44900.53;4971692;28;20473;-55
2023/07/24 05:48:21;;;;;;;12.27;3.77;;;;;;;-143.84;39.63;44923.41;4971564;28;20513;-55
2023/07/24 05:50:48;;;;;;;3.63;2.90;;;;;;;-143.84;38.60;44900.53;4971229;28;20951;-55
2023/07/24 05:53:15;;;;;;;8.47;3.10;;;;;;;-143.84;39.73;44913.88;4971389;28;20461;-55
2023/07/24 05:55:43;;;;;;;3.53;2.70;;;;;;;-143.84;39.68;44910.06;4971135;28;20537;-55
2023/07/24 05:58:11;;;;;;;5.93;2.90;;;;;;;-143.84;40.25;44885.31;4971313;28;20453;-54
2023/07/24 06:00:38;;;;;;;5.10;3.23;;;;;;;-143.84;39.17;44902.44;4970976;28;20446;-55
2023/07/24 06:03:06;;;;;;;8.47;3.13;;;;;;;-143.84;38.68;44894.84;4971168;28;20458;-55
2023/07/24 06:05:33;;;;;;;3.57;3.03;;;;;;;-143.84;40.38;44902.44;4971244;28;20454;-54
2023/07/24 06:08:01;;;;;;;5.57;3.27;;;;;;;-143.84;39.46;44883.41;4971090;28;20438;-54
2023/07/24 06:10:28;;;;;;;8.10;3.53;;;;;;;-143.84;38.99;44906.25;4970899;28;20446;-55
2023/07/24 06:12:55;;;;;;;11.87;3.50;;;;;;;-143.84;39.79;44894.84;4970975;28;20540;-54
2023/07/24 06:15:22;;;;;;;5.67;3.10;;;;;;;-143.84;39.98;44896.75;4971005;28;20446;-54
2023/07/24 06:17:49;;;;;;;5.60;3.77;;;;;;;-143.84;39.44;44894.84;4970845;28;20512;-54
2023/07/24 06:20:18;;;;;;;4.63;3.60;;;;;;;-143.84;40.06;44879.59;4970911;28;20446;-54
2023/07/24 06:22:45;;;;;;;5.47;3.67;;;;;;;-143.84;40.84;44911.97;4971045;28;20446;-54
2023/07/24 06:25:12;;;;;;;6.77;3.90;;;;;;;-143.84;39.87;44864.38;4970818;28;20438;-54
2023/07/24 06:27:39;;;;;;;3.33;3.03;;;;;;;-143.84;38.68;44883.41;4970802;28;20497;-54
2023/07/24 06:30:07;;;;;;;5.00;3.27;;;;;;;-143.84;39.63;44902.44;4970791;28;20446;-54
2023/07/24 06:32:34;;;;;;;14.60;3.50;;;;;;;-143.84;39.15;44892.94;4970861;28;20482;-54
2023/07/24 06:35:01;;;;;;;3.57;3.27;;;;;;;-143.84;39.52;44862.47;4969670;28;20462;-54
2023/07/24 06:37:30;;;;;;;7.07;3.33;;;;;;;-143.84;39.08;44889.13;4970498;28;20442;-54
2023/07/24 06:39:57;;;;;;;10.67;3.83;;;;;;;-143.84;40.10;44896.75;4970127;28;20453;-54
2023/07/24 06:42:25;;;;;;;10.53;4.20;;;;;;;-143.84;40.03;44887.22;4969077;28;20450;-54
2023/07/24 06:44:52;;;;;;;11.40;3.50;;;;;;;-143.84;39.52;44883.41;4968727;28;20851;-54
2023/07/24 06:47:19;;;;;;;5.97;3.83;;;;;;;-143.84;38.89;44883.41;4969794;28;20446;-54
2023/07/24 06:49:46;;;;;;;4.83;4.13;;;;;;;-143.84;39.21;44879.59;4969860;28;20446;-54
2023/07/24 06:52:13;;;;;;;5.80;3.40;;;;;;;-143.84;38.75;44902.44;4969588;28;20493;-54
2023/07/24 06:54:42;;;;;;;8.93;2.93;;;;;;;-143.84;38.15;44919.59;4969442;28;20485;-54
2023/07/24 06:57:09;;;;;;;4.70;3.60;;;;;;;-143.84;37.80;44900.53;4970364;28;20784;-54
2023/07/24 06:59:36;;;;;;;5.10;3.63;;;;;;;-143.84;37.18;44885.31;4970190;28;20508;-54
2023/07/24 07:02:04;;;;;;;3.03;2.83;;;;;;;-143.84;35.96;44891.03;4970271;28;20439;-54
2023/07/24 07:04:31;;;;;;;4.73;3.10;;;;;;;-143.84;37.18;44908.16;4970153;28;20797;-54
2023/07/24 07:06:58;;;;;;;3.87;2.57;;;;;;;-143.84;35.59;44870.09;4970115;28;20450;-54
2023/07/24 07:09:25;;;;;;;3.23;2.60;;;;;;;-143.84;33.13;44900.53;4970211;28;20508;-54
2023/07/24 07:11:54;;;;;;;2.67;2.47;;;;;;;-143.84;32.57;44891.03;4970016;28;20474;-54
2023/07/24 07:14:21;;;;;;;2.70;2.50;;;;;;;-143.84;32.25;44921.50;4970116;28;20585;-54
2023/07/24 07:16:48;;;;;;;3.40;2.00;;;;;;;-143.84;31.84;44904.34;4970258;28;20442;-54
2023/07/24 07:19:15;;;;;;;2.00;1.90;;;;;;;-143.84;30.74;44902.44;4969980;28;20438;-54
2023/07/24 07:21:42;;;;;;;2.00;1.90;;;;;;;-143.84;31.78;44894.84;4970088;28;21062;-54
2023/07/24 07:24:09;;;;;;;2.53;1.70;;;;;;;-143.84;32.17;44858.66;4970140;28;20524;-54
2023/07/24 07:26:37;;;;;;;1.77;1.67;;;;;;;-143.84;30.61;44919.59;4970069;28;20972;-54
2023/07/24 07:29:05;;;;;;;2.57;1.63;;;;;;;-143.84;30.41;44904.34;4969896;28;20453;-54
2023/07/24 07:31:32;;;;;;;2.37;2.17;;;;;;;-143.84;31.12;44870.09;4969673;28;20485;-54
2023/07/24 07:33:59;;;;;;;1.90;1.77;;;;;;;-143.84;30.61;44900.53;4969877;28;20450;-54
2023/07/24 07:36:27;;;;;;;2.20;1.90;;;;;;;-143.84;30.94;44894.84;4969799;28;20450;-54
2023/07/24 07:38:54;;;;;;;3.40;2.30;;;;;;;-143.84;32.89;44889.13;4970043;28;20521;-54
2023/07/24 07:41:21;;;;;;;1.70;1.50;;;;;;;-143.84;33.06;44875.78;4969512;28;20872;-54
2023/07/24 07:43:48;;;;;;;2.60;2.30;;;;;;;-143.84;34.02;44887.22;4969496;28;20900;-54
2023/07/24 07:46:16;;;;;;;3.40;3.10;;;;;;;-143.84;35.70;44904.34;4969767;28;20446;-54
2023/07/24 07:48:43;;;;;;;4.87;3.07;;;;;;;-143.84;36.19;44910.06;4969817;28;20508;-54
2023/07/24 07:51:11;;;;;;;9.03;3.20;;;;;;;-143.84;38.04;44896.75;4969676;28;20447;-54
2023/07/24 07:53:38;;;;;;;10.90;3.23;;;;;;;-143.84;37.92;44889.13;4969703;28;21022;-54
2023/07/24 07:56:05;;;;;;;6.13;4.47;;;;;;;-143.84;40.06;44927.19;4970480;28;20441;-54
2023/07/24 07:58:32;;;;;;;4.03;3.60;;;;;;;-143.84;38.75;44919.59;4973910;28;20437;-54
2023/07/24 08:01:04;;;;;;;5.03;3.17;;;;;;;-143.84;39.55;44946.25;4973429;28;20446;-54
2023/07/24 08:03:33;;;;;;;4.23;3.00;;;;;;;-143.84;35.67;44891.03;4973640;28;20465;-54
2023/07/24 08:06:00;;;;;;;3.10;2.83;;;;;;;-143.84;37.05;44904.34;4972852;28;20556;-54
2023/07/24 08:08:27;;;;;;;2.47;2.27;;;;;;;-143.84;36.44;44963.38;4973157;28;20449;-53
2023/07/24 08:10:54;;;;;;;6.70;2.60;;;;;;;-143.84;40.04;44902.44;4973319;28;20438;-54
2023/07/24 08:13:21;;;;;;;7.03;3.27;;;;;;;-143.84;41.85;44927.19;4973223;28;20485;-54
2023/07/24 08:15:49;;;;;;;7.43;4.00;;;;;;;-143.84;43.76;44942.44;4973455;28;20438;-54
2023/07/24 08:18:16;;;;;;;3.57;3.27;;;;;;;-143.84;42.78;44931.00;4973021;28;20457;-53
2023/07/24 08:20:44;;;;;;;3.10;2.90;;;;;;;-143.84;42.50;44910.06;4973100;28;20441;-54
2023/07/24 08:23:11;;;;;;;4.20;3.37;;;;;;;-143.84;42.25;44934.81;4973183;28;20517;-54
2023/07/24 08:25:38;;;;;;;3.07;2.80;;;;;;;-143.84;44.04;44948.16;4973205;28;20457;-54
2023/07/24 08:28:06;;;;;;;2.80;2.60;;;;;;;-143.84;38.74;44959.56;4973230;28;21384;-54
2023/07/24 08:30:33;;;;;;;2.87;2.67;;;;;;;-143.84;41.87;44927.19;4973170;28;20446;-54
2023/07/24 08:33:00;;;;;;;4.23;3.50;;;;;;;-143.84;44.03;44927.19;4972993;28;20496;-54
2023/07/24 08:35:27;;;;;;;6.10;2.97;;;;;;;-143.84;41.32;44934.81;4972526;28;20458;-54
2023/07/24 08:37:56;;;;;;;13.10;3.87;;;;;;;-143.84;44.00;44938.63;4972939;28;20453;-54
2023/07/24 08:40:23;;;;;;;3.43;2.70;;;;;;;-143.84;37.31;44955.75;4972717;28;20479;-54
2023/07/24 08:42:51;;;;;;;6.30;2.40;;;;;;;-143.84;38.63;44931.00;4973100;28;20520;-50
2023/07/24 08:45:19;;;;;;;3.00;2.73;;;;;;;-143.84;40.19;44931.00;4972965;28;20438;-50
2023/07/24 08:47:46;;;;;;;5.80;2.50;;;;;;;-143.84;38.72;44936.72;4973163;28;20469;-49
2023/07/24 08:50:15;;;;;;;2.60;2.40;;;;;;;-143.84;38.44;44955.75;4973063;28;20446;-48
2023/07/24 08:52:44;;;;;;;2.80;2.60;;;;;;;-143.84;38.66;44938.63;4972537;28;20564;-49
2023/07/24 08:55:13;;;;;;;2.90;2.70;;;;;;;-143.84;39.00;44948.16;4972662;28;20573;-48
2023/07/24 08:57:40;;;;;;;2.50;2.40;;;;;;;-143.84;38.01;44948.16;4972799;28;21015;-49
2023/07/24 09:00:08;;;;;;;3.57;2.00;;;;;;;-143.84;37.64;44940.53;4972828;28;20453;-49
2023/07/24 09:02:36;;;;;;;3.50;3.17;;;;;;;-143.84;41.85;44927.19;4972604;28;20477;-48
2023/07/24 09:05:04;;;;;;;4.07;3.27;;;;;;;-143.84;42.96;44953.88;4972869;28;20449;-50
2023/07/24 09:07:31;;;;;;;5.30;3.20;;;;;;;-143.84;44.60;44959.56;4972372;28;20568;-50
2023/07/24 09:09:58;;;;;;;4.03;3.60;;;;;;;-143.84;45.20;44925.31;4972317;28;20450;-50
2023/07/24 09:12:27;;;;;;;2.93;2.63;;;;;;;-143.84;43.30;44917.69;4972352;28;20485;-51
2023/07/24 09:15:04;;;;;;;3.30;3.00;;;;;;;-143.84;43.76;44953.88;4972174;28;20461;-50
2023/07/24 09:17:31;;;;;;;5.20;3.40;;;;;;;-143.84;46.03;44931.00;4971904;28;20449;-51
2023/07/24 09:19:58;;;;;;;4.73;2.80;;;;;;;-143.84;45.99;44944.34;4972383;28;20505;-50
2023/07/24 09:22:27;;;;;;;5.10;3.03;;;;;;;-143.84;44.16;44957.66;4972533;28;20450;-50
2023/07/24 09:24:56;;;;;;;4.80;3.30;;;;;;;-143.84;45.47;44942.44;4972361;28;20438;-51
2023/07/24 09:27:28;;;;;;;3.83;2.40;;;;;;;-143.84;40.92;44934.81;4972038;28;20482;-51
2023/07/24 09:29:56;;;;;;;2.67;2.47;;;;;;;-143.84;43.30;44925.31;4972064;28;20442;-51
2023/07/24 09:32:24;;;;;;;2.60;2.40;;;;;;;-143.84;41.03;44917.69;4971988;28;20480;-50
2023/07/24 09:34:53;;;;;;;3.13;2.93;;;;;;;-143.84;43.26;44921.50;4972376;28;20438;-50
2023/07/24 09:37:27;;;;;;;3.00;2.70;;;;;;;-143.84;42.68;44925.31;4971872;28;20445;-50
2023/07/24 09:39:55;;;;;;;3.50;3.17;;;;;;;-143.84;43.92;44919.59;4972009;28;20442;-50
2023/07/24 09:42:35;;;;;;;3.03;2.73;;;;;;;-143.84;45.27;44967.19;4971920;28;20828;-50
2023/07/24 09:45:03;;;;;;;3.90;2.80;;;;;;;-143.84;42.68;44969.09;4969584;28;20454;-50
2023/07/24 09:47:30;;;;;;;3.87;2.70;;;;;;;-143.84;43.10;44951.97;4968015;28;20449;-50
2023/07/24 09:49:57;;;;;;;3.13;2.90;;;;;;;-143.84;44.47;44932.91;4966562;28;20889;-50
2023/07/24 09:52:28;;;;;;;2.80;2.60;;;;;;;-143.84;46.05;44965.28;4980998;28;20488;-49
2023/07/24 09:55:00;;;;;;;3.90;3.00;;;;;;;-143.84;45.75;44957.66;4973528;28;20489;-50
2023/07/24 09:57:30;;;;;;;3.03;2.73;;;;;;;-143.84;45.17;44965.28;4966425;28;20863;-51
2023/07/24 09:59:59;;;;;;;2.90;2.53;;;;;;;-143.84;47.83;44965.28;4968069;28;20458;-49
2023/07/24 10:02:27;;;;;;;2.90;2.70;;;;;;;-143.84;49.77;44969.09;4971310;28;20453;-50
2023/07/24 10:04:55;;;;;;;4.00;3.60;;;;;;;-143.84;50.93;44993.84;4980286;28;20454;-50
2023/07/24 10:07:23;;;;;;;3.50;3.20;;;;;;;-143.84;50.12;44982.41;4965554;28;20456;-51
2023/07/24 10:09:51;;;;;;;3.47;2.97;;;;;;;-143.84;48.73;44974.81;4969846;28;20445;-51
2023/07/24 10:12:19;;;;;;;3.13;2.70;;;;;;;-143.84;51.99;44959.56;4969527;28;20453;-50
2023/07/24 10:14:47;;;;;;;3.87;3.50;;;;;;;-143.84;48.45;44950.06;4969342;28;20463;-50
2023/07/24 10:17:25;;;;;;;3.97;3.57;;;;;;;-143.84;51.61;44963.38;4967653;28;20468;-49
2023/07/24 10:19:52;;;;;;;4.30;3.30;;;;;;;-143.84;54.15;44965.28;4969829;28;20496;-50
2023/07/24 10:22:20;;;;;;;4.60;2.80;;;;;;;-143.84;54.03;44980.53;4971227;28;20454;-50
2023/07/24 10:24:47;;;;;;;3.60;3.20;;;;;;;-143.84;56.42;45001.47;4971024;28;20456;-50
2023/07/24 10:27:14;;;;;;;5.00;3.53;;;;;;;-143.84;56.85;44978.63;4970506;28;20465;-50
2023/07/24 10:29:43;;;;;;;4.53;3.03;;;;;;;-143.84;61.35;44978.63;4961917;28;20459;-50
2023/07/24 10:32:21;;;;;;;3.93;3.60;;;;;;;-143.84;55.02;44951.97;4970858;28;20505;-50
2023/07/24 10:34:57;;;;;;;3.60;3.30;;;;;;;-143.84;56.88;44951.97;4970664;28;20456;-50
2023/07/24 10:37:33;;;;;;;3.70;3.40;;;;;;;-143.84;58.51;44972.91;4968045;28;20461;-50
2023/07/24 10:40:00;;;;;;;3.80;3.50;;;;;;;-143.84;58.80;44969.09;4966460;28;20455;-50
2023/07/24 10:42:28;;;;;;;3.63;3.33;;;;;;;-143.84;60.19;44980.53;4969551;28;20452;-51
2023/07/24 10:45:05;;;;;;;3.50;3.20;;;;;;;-143.84;62.77;44988.13;4966641;28;20453;-50
2023/07/24 10:47:59;;;;;;;6.63;3.97;;;;;;;-143.84;61.80;45012.88;4964190;28;20935;-51
2023/07/24 10:53:53;;;;;;;5.30;3.70;;;;;;;-143.84;61.83;44990.03;4967565;28;20593;-50
2023/07/24 11:51:45;;;;;;;3.87;3.57;;;;;;;-143.84;70.66;44991.94;4977287;28;20501;-50
2023/07/24 11:54:13;;;;;;;4.07;3.73;;;;;;;-143.84;70.61;45009.09;4973258;28;20505;-49
2023/07/24 11:56:40;;;;;;;6.97;4.03;;;;;;;-143.84;71.42;44984.31;4973318;28;20464;-50
2023/07/24 11:59:12;;;;;;;4.20;3.80;;;;;;;-143.84;76.12;44976.72;4973139;28;20954;-50
2023/07/24 12:01:39;;;;;;;5.23;3.87;;;;;;;-143.84;70.51;44997.66;4973130;28;20461;-50
2023/07/24 12:04:06;;;;;;;5.27;4.00;;;;;;;-143.84;72.73;45018.59;4972492;28;20441;-50
2023/07/24 12:06:34;;;;;;;3.97;3.67;;;;;;;-143.84;73.42;44997.66;4972709;28;20461;-50
2023/07/24 12:09:06;;;;;;;4.73;3.80;;;;;;;-143.84;73.10;45030.03;4972707;28;20446;-51
2023/07/24 12:11:33;;;;;;;4.00;3.60;;;;;;;-143.84;74.13;45024.31;4972487;28;20818;-50
2023/07/24 12:14:00;;;;;;;3.77;3.47;;;;;;;-143.84;73.27;45007.19;4972270;28;20521;-50
2023/07/24 12:16:30;;;;;;;3.90;3.60;;;;;;;-143.84;75.88;45033.84;4972036;28;21037;-51
2023/07/24 12:18:57;;;;;;;3.77;3.33;;;;;;;-143.84;74.52;45010.97;4972097;28;20998;-49